Time;durP1;ratioP1;P1;durP2;ratioP2;P2;SDS_P1;SDS_P2;PMS_P1;PMS_P2;Temp;Humidity;BMP_temperature;BMP_pressure;BME280_temperature;BME280_humidity;BME280_pressure;Samples;Min_cycle;Max_cycle;Signal;HPM_P1;HPM_P2
2021/03/21 00:01:47;;;;;;;27.93;10.40;;;;;;;-0.10;58.16;100352.49;1716830;82;20939;-75
2021/03/21 00:04:15;;;;;;;26.33;10.57;;;;;;;-0.10;58.22;100352.97;1722165;80;21037;-75
2021/03/21 00:06:40;;;;;;;;;;;;;;;-0.08;58.17;100346.78;1721678;80;21203;-76
2021/03/21 00:09:06;;;;;;;29.63;9.40;;;;;;;0.05;58.01;100351.28;1726953;79;21231;-75
2021/03/21 00:11:32;;;;;;;25.70;10.48;;;;;;;-0.20;58.31;100346.14;1729284;79;21679;-76
2021/03/21 00:13:58;;;;;;;33.18;11.12;;;;;;;-0.16;58.70;100337.25;1724641;79;21287;-75
2021/03/21 00:16:24;;;;;;;27.63;11.27;;;;;;;-0.07;58.36;100342.42;1726593;81;21187;-75
2021/03/21 00:18:50;;;;;;;25.97;10.80;;;;;;;-0.07;58.38;100332.86;1724996;79;21412;-75
2021/03/21 00:21:15;;;;;;;28.43;11.37;;;;;;;-0.08;58.49;100326.45;1762177;78;21249;-74
2021/03/21 00:23:41;;;;;;;31.87;12.17;;;;;;;-0.10;58.58;100320.05;1785310;79;21122;-76
2021/03/21 00:26:08;;;;;;;30.83;11.20;;;;;;;-0.15;58.87;100311.69;1786815;79;20952;-75
2021/03/21 00:28:34;;;;;;;28.13;11.70;;;;;;;-0.01;58.55;100310.46;1775771;79;21216;-74
2021/03/21 00:31:00;;;;;;;31.05;11.63;;;;;;;-0.05;58.55;100307.67;1781743;79;21231;-76
2021/03/21 00:33:28;;;;;;;31.13;10.60;;;;;;;-0.12;58.79;100306.33;1783937;79;22326;-75
2021/03/21 00:35:54;;;;;;;27.80;11.85;;;;;;;-0.30;59.40;100293.05;1779509;79;21215;-76
2021/03/21 00:38:33;;;;;;;24.37;9.15;;;;;;;-0.28;59.32;100290.77;1784986;79;21637;-76
2021/03/21 00:40:59;;;;;;;28.38;10.82;;;;;;;-0.36;59.56;100292.91;1781036;79;21197;-76
2021/03/21 00:43:25;;;;;;;27.70;11.03;;;;;;;-0.38;59.69;100282.61;1776882;79;21592;-75
2021/03/21 00:45:51;;;;;;;23.60;10.10;;;;;;;-0.65;60.50;100276.30;1780549;79;21917;-75
2021/03/21 00:48:27;;;;;;;27.67;10.37;;;;;;;-0.53;60.37;100267.87;1779861;79;20905;-75
2021/03/21 00:50:54;;;;;;;25.50;8.83;;;;;;;-0.44;60.09;100261.36;1781435;79;21232;-75
2021/03/21 00:53:20;;;;;;;23.62;8.80;;;;;;;-0.35;59.78;100266.52;1780369;79;21190;-76
2021/03/21 00:55:46;;;;;;;24.70;10.37;;;;;;;-0.50;60.07;100249.55;1782502;79;20927;-76
2021/03/21 00:58:11;;;;;;;27.47;10.13;;;;;;;-0.43;60.22;100248.31;1779116;79;21931;-73
2021/03/21 01:00:43;;;;;;;27.97;9.93;;;;;;;-0.21;59.57;100249.73;1783203;79;20896;-75
2021/03/21 01:03:09;;;;;;;22.93;8.73;;;;;;;-0.12;59.45;100233.65;1788711;79;21318;-75
2021/03/21 01:05:38;;;;;;;26.53;9.90;;;;;;;-0.21;59.49;100231.09;1780729;79;20919;-73
2021/03/21 01:08:22;;;;;;;23.87;9.60;;;;;;;-0.22;59.56;100222.09;1777232;79;21259;-71
2021/03/21 01:10:48;;;;;;;29.92;11.12;;;;;;;-0.17;59.46;100220.10;1775213;79;21222;-73
2021/03/21 01:13:14;;;;;;;27.37;10.75;;;;;;;-0.16;59.56;100217.86;1777301;79;21248;-72
2021/03/21 01:15:40;;;;;;;27.40;10.83;;;;;;;-0.42;60.19;100205.89;1778992;79;21042;-72
2021/03/21 01:18:06;;;;;;;25.93;10.10;;;;;;;-0.24;59.83;100206.61;1776959;79;21400;-72
2021/03/21 01:20:32;;;;;;;24.95;10.72;;;;;;;-0.16;59.59;100197.09;1777506;79;21209;-72
2021/03/21 01:22:58;;;;;;;22.03;9.43;;;;;;;-0.25;59.59;100194.58;1737290;80;21342;-73
2021/03/21 01:25:26;;;;;;;25.70;9.93;;;;;;;-0.17;59.61;100194.59;1733849;81;21103;-73
2021/03/21 01:27:53;;;;;;;24.47;10.68;;;;;;;-0.12;59.55;100173.95;1736627;81;21151;-73
2021/03/21 01:30:20;;;;;;;;;;;;;;;-0.06;59.52;100182.69;1743533;81;21653;-73
2021/03/21 01:32:46;;;;;;;22.22;8.20;;;;;;;-0.30;60.06;100174.52;1738531;81;20338;-72
2021/03/21 01:35:12;;;;;;;29.97;11.43;;;;;;;-0.16;59.87;100159.47;1737954;81;21121;-72
2021/03/21 01:37:38;;;;;;;32.93;12.10;;;;;;;-0.59;60.68;100167.05;1736712;81;21208;-72
2021/03/21 01:40:07;;;;;;;36.10;11.37;;;;;;;-0.22;60.13;100149.44;1735919;81;21665;-71
2021/03/21 01:42:39;;;;;;;23.65;10.32;;;;;;;-0.26;60.21;100151.84;1739878;81;21848;-71
2021/03/21 01:45:38;;;;;;;28.55;10.68;;;;;;;-0.32;60.34;100154.31;1743260;81;21192;-73
2021/03/21 01:48:08;;;;;;;29.87;10.90;;;;;;;-0.44;60.79;100144.16;1738168;81;21583;-72
2021/03/21 01:50:49;;;;;;;24.15;9.15;;;;;;;-0.56;61.16;100138.35;1740362;80;21217;-73
2021/03/21 01:53:17;;;;;;;29.45;10.65;;;;;;;-0.44;60.82;100122.58;1737947;81;21209;-72
2021/03/21 01:55:43;;;;;;;26.05;10.45;;;;;;;-0.46;60.88;100114.87;1739845;81;21664;-73
2021/03/21 01:58:09;;;;;;;22.57;9.33;;;;;;;-0.33;60.58;100107.70;1737733;81;20923;-71
2021/03/21 02:00:36;;;;;;;29.63;10.80;;;;;;;-0.39;60.78;100108.44;1739269;81;21360;-72
2021/03/21 02:03:02;;;;;;;24.20;9.90;;;;;;;-0.43;60.68;100095.25;1741708;81;21234;-72
2021/03/21 02:05:27;;;;;;;21.13;9.07;;;;;;;-0.38;60.75;100093.22;1735720;81;21647;-72
2021/03/21 02:08:24;;;;;;;25.80;9.73;;;;;;;-0.42;60.84;100094.34;1733912;81;20938;-72
2021/03/21 02:11:04;;;;;;;28.32;9.05;;;;;;;-0.39;60.85;100094.16;1737278;81;21237;-72
2021/03/21 02:13:41;;;;;;;23.40;8.58;;;;;;;-0.32;60.69;100089.92;1714206;81;21716;-73
2021/03/21 02:16:11;;;;;;;17.65;8.03;;;;;;;-0.17;60.31;100087.74;1736250;80;21233;-72
2021/03/21 02:19:04;;;;;;;20.68;8.90;;;;;;;-0.27;60.42;100078.81;1739147;81;21231;-72
2021/03/21 02:21:45;;;;;;;20.68;7.87;;;;;;;-0.14;60.27;100079.78;1744120;80;21228;-73
2021/03/21 02:24:22;;;;;;;19.67;8.33;;;;;;;-0.44;60.88;100070.22;1740908;80;21178;-74
2021/03/21 02:27:12;;;;;;;21.07;8.25;;;;;;;-0.17;60.31;100057.05;1753654;80;21894;-73
2021/03/21 02:29:55;;;;;;;24.70;8.63;;;;;;;-0.27;60.51;100056.28;1738720;80;21553;-73
2021/03/21 02:32:34;;;;;;;23.05;9.45;;;;;;;-0.30;60.66;100056.93;1758353;80;21224;-72
2021/03/21 02:35:32;;;;;;;20.00;7.85;;;;;;;-0.31;60.84;100040.98;1755729;80;21188;-72
2021/03/21 02:38:33;;;;;;;24.63;8.85;;;;;;;-0.31;60.60;100031.89;1758449;80;21202;-74
2021/03/21 02:41:02;;;;;;;23.30;9.30;;;;;;;-0.43;61.11;100026.50;1753685;80;22208;-73
2021/03/21 02:43:45;;;;;;;26.27;9.38;;;;;;;-0.43;61.24;100010.11;1762092;80;22278;-72
2021/03/21 02:46:21;;;;;;;19.15;7.47;;;;;;;-0.38;61.36;100004.19;1765330;80;21194;-72
2021/03/21 02:49:10;;;;;;;20.50;8.53;;;;;;;-0.35;61.32;100010.49;1755734;79;22592;-73
2021/03/21 02:51:39;;;;;;;19.82;7.92;;;;;;;-0.29;61.25;100001.53;1767802;80;21141;-73
2021/03/21 02:54:22;;;;;;;25.70;9.45;;;;;;;-0.21;61.21;99988.92;1757258;80;21945;-73
2021/03/21 02:56:51;;;;;;;17.77;7.55;;;;;;;-0.29;61.46;99991.97;1757890;80;21214;-73
2021/03/21 02:59:25;;;;;;;18.95;7.30;;;;;;;-0.01;60.94;99982.06;1752783;79;21451;-73
2021/03/21 03:01:54;;;;;;;23.18;8.30;;;;;;;0.03;60.65;99976.69;1756631;80;21119;-73
2021/03/21 03:04:28;;;;;;;16.57;7.62;;;;;;;0.09;60.57;99965.94;1763587;80;21176;-73
2021/03/21 03:06:58;;;;;;;18.35;8.00;;;;;;;0.22;60.26;99968.16;1762429;80;21919;-73
2021/03/21 03:09:28;;;;;;;18.12;7.35;;;;;;;0.21;60.22;99962.59;1763679;80;21230;-73
2021/03/21 03:12:01;;;;;;;19.70;8.05;;;;;;;0.19;60.33;99963.16;1759451;80;21227;-72
2021/03/21 03:14:34;;;;;;;19.07;8.28;;;;;;;0.12;60.72;99946.27;1755302;80;21512;-72
2021/03/21 03:17:07;;;;;;;18.77;7.10;;;;;;;0.13;60.79;99946.66;1765765;80;21638;-72
2021/03/21 03:19:44;;;;;;;19.52;7.95;;;;;;;0.19;60.51;99933.30;1762373;80;21392;-72
2021/03/21 03:22:38;;;;;;;19.48;7.92;;;;;;;0.22;60.64;99938.30;1763673;80;21153;-72
2021/03/21 03:25:10;;;;;;;23.85;8.00;;;;;;;0.24;60.84;99930.41;1752853;81;21236;-72
2021/03/21 03:27:46;;;;;;;19.87;8.33;;;;;;;0.08;61.30;99926.61;1762943;81;21229;-72
2021/03/21 03:30:18;;;;;;;23.70;7.72;;;;;;;0.03;61.67;99919.58;1762115;81;21617;-72
2021/03/21 03:32:44;;;;;;;18.23;7.62;;;;;;;0.10;61.37;99915.69;1734002;81;21231;-73
2021/03/21 03:35:12;;;;;;;21.83;7.73;;;;;;;0.07;61.80;99910.69;1763690;81;20905;-73
2021/03/21 03:37:38;;;;;;;16.30;6.97;;;;;;;0.15;61.62;99901.95;1766181;81;21117;-72
2021/03/21 03:40:06;;;;;;;20.03;8.77;;;;;;;0.09;61.77;99898.44;1764407;80;21020;-73
2021/03/21 03:43:06;;;;;;;21.82;9.10;;;;;;;0.07;62.00;99895.11;1763273;81;22303;-73
2021/03/21 03:46:10;;;;;;;17.48;8.00;;;;;;;0.12;61.87;99893.05;1763288;80;21230;-72
2021/03/21 03:48:53;;;;;;;22.65;8.50;;;;;;;0.21;61.75;99887.28;1763033;80;21188;-72
2021/03/21 03:51:30;;;;;;;20.82;8.25;;;;;;;0.01;62.26;99876.02;1766267;81;21193;-72
2021/03/21 03:54:16;;;;;;;19.98;7.67;;;;;;;0.18;62.13;99874.48;1760726;81;21922;-72
2021/03/21 03:57:02;;;;;;;18.23;7.78;;;;;;;0.26;61.89;99868.81;1763127;81;21249;-72
2021/03/21 03:59:50;;;;;;;20.23;8.15;;;;;;;0.08;62.50;99864.30;1762985;81;21208;-72
2021/03/21 04:02:26;;;;;;;18.35;7.40;;;;;;;0.24;62.15;99863.72;1762850;81;21162;-72
2021/03/21 04:05:24;;;;;;;18.55;7.42;;;;;;;0.12;62.45;99860.59;1764485;80;21194;-72
2021/03/21 04:08:06;;;;;;;21.68;8.63;;;;;;;0.06;62.70;99855.78;1709498;81;21204;-72
2021/03/21 04:10:40;;;;;;;22.10;7.50;;;;;;;0.05;62.78;99852.81;1745750;80;21254;-72
2021/03/21 04:13:16;;;;;;;16.95;7.10;;;;;;;0.00;63.06;99840.16;1760673;80;21221;-73
2021/03/21 04:15:48;;;;;;;19.17;7.30;;;;;;;0.13;62.81;99835.84;1761462;79;21211;-72
2021/03/21 04:18:31;;;;;;;18.35;7.60;;;;;;;0.22;62.55;99832.27;1767747;79;21175;-72
2021/03/21 04:21:18;;;;;;;20.80;8.25;;;;;;;0.18;62.59;99840.73;1767840;79;22341;-72
2021/03/21 04:23:49;;;;;;;20.62;8.15;;;;;;;0.35;62.23;99835.29;1771374;79;21220;-72
2021/03/21 04:26:20;;;;;;;20.52;8.45;;;;;;;0.33;62.23;99824.17;1771465;79;21597;-72
2021/03/21 04:29:06;;;;;;;20.10;7.80;;;;;;;0.40;61.96;99815.98;1774250;79;21243;-72
2021/03/21 04:31:32;;;;;;;21.95;8.25;;;;;;;0.03;62.63;99820.94;1773101;79;21214;-72
2021/03/21 04:34:01;;;;;;;19.30;7.70;;;;;;;0.35;62.16;99816.28;1778685;78;20939;-73
2021/03/21 04:36:31;;;;;;;20.27;8.88;;;;;;;0.20;62.64;99816.80;1771819;78;21201;-73
2021/03/21 04:39:22;;;;;;;20.50;7.53;;;;;;;0.37;62.08;99805.80;1775028;79;21843;-71
2021/03/21 04:41:50;;;;;;;20.57;7.55;;;;;;;0.50;61.77;99794.98;1772299;79;21257;-71
2021/03/21 04:44:23;;;;;;;22.32;8.95;;;;;;;0.25;62.16;99799.17;1776351;79;21638;-71
2021/03/21 04:47:06;;;;;;;28.73;9.85;;;;;;;0.30;62.21;99806.20;1775559;79;21661;-74
2021/03/21 04:49:32;;;;;;;20.85;8.10;;;;;;;0.16;62.67;99801.06;1772972;79;21206;-73
2021/03/21 04:52:21;;;;;;;24.93;8.73;;;;;;;0.29;62.12;99790.70;1775220;79;22365;-74
2021/03/21 04:54:48;;;;;;;23.55;8.58;;;;;;;0.33;62.01;99783.92;1780015;79;21200;-74
2021/03/21 04:57:23;;;;;;;21.75;7.53;;;;;;;0.03;62.68;99789.78;1772014;79;21180;-72
2021/03/21 04:59:49;;;;;;;21.33;8.38;;;;;;;0.26;62.10;99781.34;1771996;79;21222;-73
2021/03/21 05:02:31;;;;;;;20.25;8.00;;;;;;;0.28;61.85;99774.30;1774635;79;21161;-73
2021/03/21 05:05:05;;;;;;;17.87;8.35;;;;;;;0.24;62.00;99772.01;1770616;79;21975;-73
2021/03/21 05:07:45;;;;;;;22.30;8.48;;;;;;;0.35;61.82;99766.94;1774966;79;21204;-73
2021/03/21 05:10:32;;;;;;;19.32;7.37;;;;;;;0.34;61.56;99768.71;1772656;79;21189;-73
2021/03/21 05:13:14;;;;;;;18.05;7.50;;;;;;;0.33;61.46;99767.04;1773243;79;21245;-73
2021/03/21 05:15:53;;;;;;;19.35;7.30;;;;;;;0.35;61.38;99756.08;1773632;79;21216;-72
2021/03/21 05:18:36;;;;;;;21.65;7.95;;;;;;;0.42;61.28;99750.47;1778758;79;21428;-73
2021/03/21 05:21:10;;;;;;;25.00;8.45;;;;;;;0.47;61.33;99752.33;1772463;79;21232;-73
2021/03/21 05:23:48;;;;;;;16.75;7.58;;;;;;;0.42;61.54;99743.98;1777812;79;21217;-73
2021/03/21 05:26:38;;;;;;;18.75;7.45;;;;;;;0.42;61.41;99751.33;1781569;79;21202;-73
2021/03/21 05:29:25;;;;;;;17.77;6.75;;;;;;;0.60;60.98;99751.03;1780956;79;21670;-71
2021/03/21 05:31:51;;;;;;;20.72;7.60;;;;;;;0.58;61.04;99746.42;1746628;80;22060;-73
2021/03/21 05:34:16;;;;;;;16.93;7.03;;;;;;;0.58;60.68;99743.82;1778862;79;20915;-73
2021/03/21 05:37:04;;;;;;;20.87;7.33;;;;;;;0.56;60.65;99741.33;1774544;79;21001;-73
2021/03/21 05:40:03;;;;;;;17.62;6.92;;;;;;;0.44;60.61;99724.77;1779079;79;21224;-73
2021/03/21 05:42:43;;;;;;;18.50;7.80;;;;;;;0.66;60.59;99738.94;1780243;79;21204;-73
2021/03/21 05:45:33;;;;;;;19.77;7.62;;;;;;;0.68;60.46;99745.70;1753763;79;21204;-73
2021/03/21 05:48:36;;;;;;;20.77;7.67;;;;;;;0.78;60.32;99741.16;1781472;79;21456;-73
2021/03/21 05:51:26;;;;;;;23.57;7.97;;;;;;;0.65;60.28;99734.66;1776580;79;21230;-72
2021/03/21 05:54:49;;;;;;;20.77;8.30;;;;;;;0.59;60.32;99720.34;1778105;79;21606;-71
2021/03/21 05:58:04;;;;;;;16.23;7.12;;;;;;;0.59;60.32;99728.13;1741917;80;21796;-73
2021/03/21 06:00:44;;;;;;;21.87;8.20;;;;;;;0.66;60.05;99715.55;1737784;80;21243;-74
2021/03/21 06:03:27;;;;;;;16.85;6.42;;;;;;;0.73;59.90;99718.55;1771197;79;21212;-73
2021/03/21 06:06:24;;;;;;;18.82;6.78;;;;;;;0.61;59.58;99711.96;1781850;79;21673;-73
2021/03/21 06:09:13;;;;;;;19.55;7.12;;;;;;;0.49;59.72;99715.38;1776570;79;21200;-72
2021/03/21 06:12:13;;;;;;;17.85;7.75;;;;;;;0.70;59.77;99699.64;1783944;79;21253;-72
2021/03/21 06:15:09;;;;;;;16.15;7.00;;;;;;;0.58;60.02;99697.88;1776963;79;21217;-72
2021/03/21 06:18:04;;;;;;;19.23;7.42;;;;;;;0.59;60.09;99692.20;1778889;79;21665;-72
2021/03/21 06:20:59;;;;;;;19.40;7.20;;;;;;;0.44;60.28;99683.22;1776823;79;21647;-73
2021/03/21 06:23:55;;;;;;;17.48;7.15;;;;;;;0.56;60.06;99691.96;1780647;78;21135;-73
2021/03/21 06:26:44;;;;;;;15.88;7.05;;;;;;;0.53;60.14;99673.98;1739496;79;21223;-73
2021/03/21 06:29:27;;;;;;;18.90;7.50;;;;;;;0.83;59.67;99670.22;1777066;80;21549;-73
2021/03/21 06:32:17;;;;;;;18.05;7.22;;;;;;;0.85;59.68;99670.94;1727577;80;21251;-73
2021/03/21 06:34:47;;;;;;;21.00;7.70;;;;;;;0.82;59.50;99673.75;1778025;79;21225;-73
2021/03/21 06:38:02;;;;;;;17.15;7.30;;;;;;;0.61;60.22;99666.48;1779732;79;21275;-73
2021/03/21 06:40:48;;;;;;;16.73;6.75;;;;;;;0.65;60.14;99667.95;1744534;79;21200;-73
2021/03/21 06:43:22;;;;;;;18.32;7.75;;;;;;;0.60;60.17;99655.72;1778581;79;21873;-73
2021/03/21 06:46:24;;;;;;;17.23;7.20;;;;;;;0.76;60.04;99672.39;1776142;79;21236;-72
2021/03/21 06:48:58;;;;;;;19.77;7.17;;;;;;;0.87;59.96;99650.41;1782214;78;21174;-73
2021/03/21 06:51:54;;;;;;;17.80;7.85;;;;;;;0.93;59.65;99642.63;1775305;78;21251;-74
2021/03/21 06:54:48;;;;;;;15.93;7.37;;;;;;;0.71;60.13;99646.75;1775182;78;21172;-74
2021/03/21 06:57:32;;;;;;;14.30;6.75;;;;;;;0.66;60.60;99641.02;1780895;78;22615;-74
2021/03/21 07:00:26;;;;;;;22.27;7.95;;;;;;;0.79;60.49;99655.77;1778743;79;21212;-75
2021/03/21 07:03:48;;;;;;;19.75;7.37;;;;;;;0.70;60.90;99652.88;1774203;79;21188;-74
2021/03/21 07:06:52;;;;;;;19.27;7.58;;;;;;;0.67;60.98;99651.78;1776224;78;21176;-74
2021/03/21 07:09:51;;;;;;;21.48;8.15;;;;;;;1.02;60.48;99636.79;1780464;79;21172;-73
2021/03/21 07:12:47;;;;;;;19.85;8.73;;;;;;;0.82;61.12;99632.16;1778481;79;21182;-72
2021/03/21 07:15:42;;;;;;;19.80;7.50;;;;;;;0.63;61.76;99632.12;1773731;80;21227;-72
2021/03/21 07:18:34;;;;;;;23.15;8.18;;;;;;;0.61;61.93;99631.89;1777593;79;21240;-74
2021/03/21 07:21:43;;;;;;;18.65;8.20;;;;;;;0.48;62.46;99630.13;1778306;79;21181;-75
2021/03/21 07:24:54;;;;;;;23.10;8.85;;;;;;;0.49;62.89;99629.66;1782018;78;21180;-75
2021/03/21 07:27:46;;;;;;;18.05;8.65;;;;;;;0.57;63.14;99622.16;1775942;79;22555;-75
2021/03/21 07:30:34;;;;;;;24.63;8.93;;;;;;;0.73;63.08;99619.36;1777129;78;21629;-75
2021/03/21 07:33:06;;;;;;;20.43;8.08;;;;;;;0.65;63.32;99601.69;1780910;78;21227;-74
2021/03/21 07:35:46;;;;;;;20.35;8.48;;;;;;;0.91;62.60;99608.12;1779242;79;21200;-74
2021/03/21 07:38:31;;;;;;;21.33;9.60;;;;;;;0.64;63.57;99598.72;1778441;79;21220;-74
2021/03/21 07:41:22;;;;;;;23.42;9.18;;;;;;;0.53;64.54;99603.84;1776080;78;22843;-75
2021/03/21 07:44:20;;;;;;;21.17;8.75;;;;;;;0.43;65.33;99606.21;1779039;79;21683;-76
2021/03/21 07:46:57;;;;;;;22.10;10.00;;;;;;;0.53;65.08;99585.66;1777279;79;21205;-76
2021/03/21 07:49:44;;;;;;;23.35;8.95;;;;;;;0.71;64.74;99581.78;1781263;79;21220;-75
2021/03/21 07:52:47;;;;;;;22.23;9.60;;;;;;;1.01;64.02;99570.15;1778769;78;21176;-75
2021/03/21 07:55:28;;;;;;;23.60;9.60;;;;;;;1.20;63.67;99580.05;1776214;79;21737;-76
2021/03/21 07:58:14;;;;;;;24.80;9.78;;;;;;;1.07;64.83;99564.96;1774699;79;21235;-76
2021/03/21 08:00:40;;;;;;;13.22;6.58;;;;;;;1.22;64.77;99569.55;1779520;79;21209;-76
2021/03/21 08:03:23;;;;;;;23.47;9.48;;;;;;;0.76;67.04;99562.41;1778365;79;21219;-75
2021/03/21 08:05:55;;;;;;;20.37;9.70;;;;;;;0.97;67.07;99554.88;1778433;78;21180;-75
2021/03/21 08:08:25;;;;;;;20.65;9.10;;;;;;;1.07;66.85;99559.31;1775020;79;21212;-74
2021/03/21 08:10:56;;;;;;;26.45;10.50;;;;;;;1.04;67.66;99556.93;1774735;79;21216;-78
2021/03/21 08:13:41;;;;;;;21.65;10.03;;;;;;;0.61;69.41;99553.94;1776517;79;21528;-75
2021/03/21 08:16:22;;;;;;;20.80;10.15;;;;;;;1.02;68.35;99548.39;1778376;79;21205;-76
2021/03/21 08:18:48;;;;;;;22.45;9.58;;;;;;;1.07;68.30;99558.02;1777430;78;21185;-75
2021/03/21 08:21:21;;;;;;;20.90;9.13;;;;;;;1.19;67.80;99556.77;1783889;79;21136;-75
2021/03/21 08:23:49;;;;;;;20.80;9.78;;;;;;;1.26;67.47;99557.99;1778666;79;21149;-75
2021/03/21 08:26:17;;;;;;;24.77;11.22;;;;;;;1.04;68.12;99559.98;1782881;78;21211;-75
2021/03/21 08:29:01;;;;;;;;;;;;;;;0.85;69.05;99553.97;1778998;78;22346;-75
2021/03/21 08:31:32;;;;;;;23.18;10.20;;;;;;;1.04;68.58;99554.33;1777174;79;20220;-75
2021/03/21 08:34:32;;;;;;;22.77;11.35;;;;;;;0.86;69.98;99555.64;1781475;78;21786;-74
2021/03/21 08:37:00;;;;;;;20.37;10.30;;;;;;;0.94;70.12;99558.52;1776315;79;21185;-74
2021/03/21 08:39:32;;;;;;;;;;;;;;;0.99;70.06;99542.11;1779495;79;21651;-74
2021/03/21 08:42:02;;;;;;;23.32;10.45;;;;;;;0.90;70.50;99541.47;1778428;79;20344;-75
2021/03/21 08:44:42;;;;;;;23.80;11.10;;;;;;;0.80;70.99;99550.87;1782432;79;21136;-75
2021/03/21 08:47:23;;;;;;;22.55;10.75;;;;;;;0.65;71.67;99535.44;1778221;79;21657;-75
2021/03/21 08:49:51;;;;;;;24.32;11.15;;;;;;;1.07;70.57;99533.31;1777977;78;21617;-76
2021/03/21 08:52:43;;;;;;;25.52;11.43;;;;;;;1.01;70.97;99541.55;1779014;79;21185;-76
2021/03/21 08:55:32;;;;;;;25.92;11.08;;;;;;;0.89;71.78;99541.13;1770885;79;21464;-75
2021/03/21 08:58:00;;;;;;;30.30;12.58;;;;;;;0.69;72.86;99540.76;1776178;79;21196;-76
2021/03/21 09:00:34;;;;;;;28.35;12.00;;;;;;;0.99;72.75;99533.02;1777809;79;21201;-76
2021/03/21 09:03:00;;;;;;;25.25;12.18;;;;;;;0.93;73.13;99534.75;1777162;79;21837;-76
2021/03/21 09:05:26;;;;;;;28.25;12.45;;;;;;;0.71;73.96;99523.76;1775715;79;21212;-74
2021/03/21 09:08:03;;;;;;;28.87;12.73;;;;;;;0.86;74.66;99547.84;1776152;79;21646;-74
2021/03/21 09:10:35;;;;;;;;;;;;;;;0.85;74.90;99531.39;1785114;79;21231;-78
2021/03/21 09:13:18;;;;;;;26.27;11.97;;;;;;;0.77;75.21;99531.60;1776854;79;21196;-75
2021/03/21 09:15:46;;;;;;;21.97;11.60;;;;;;;0.78;75.51;99521.55;1774994;79;21188;-76
2021/03/21 09:18:22;;;;;;;30.97;14.07;;;;;;;;;;1770862;78;21612;-76
2021/03/21 09:21:04;;;;;;;28.12;14.07;;;;;;;;;;1779570;79;21201;-77
2021/03/21 09:23:57;;;;;;;30.27;13.40;;;;;;;0.91;77.03;99534.52;1780717;79;21243;-75
2021/03/21 09:26:31;;;;;;;25.92;12.23;;;;;;;1.03;77.11;99521.46;1758904;80;21525;-75
2021/03/21 09:29:21;;;;;;;25.12;12.85;;;;;;;1.16;76.55;99525.78;1778607;78;21186;-75
2021/03/21 09:31:51;;;;;;;27.58;12.63;;;;;;;1.26;76.36;99515.08;1776548;79;21233;-76
2021/03/21 09:34:33;;;;;;;23.02;12.25;;;;;;;1.25;75.95;99514.70;1778894;79;21565;-74
2021/03/21 09:37:10;;;;;;;26.10;13.80;;;;;;;1.46;75.61;99511.45;1776048;79;21221;-76
2021/03/21 09:39:39;;;;;;;30.95;14.63;;;;;;;1.38;75.16;99522.43;1776843;79;21249;-75
2021/03/21 09:42:10;;;;;;;25.75;13.50;;;;;;;1.37;75.46;99513.80;1780951;79;21265;-76
2021/03/21 09:44:44;;;;;;;30.95;14.30;;;;;;;1.67;74.58;99516.85;1778598;79;21239;-74
2021/03/21 09:47:31;;;;;;;26.57;12.63;;;;;;;1.74;74.20;99512.38;1776256;79;21202;-76
2021/03/21 09:50:29;;;;;;;27.48;12.90;;;;;;;1.97;73.40;99511.94;1777551;79;21228;-76
2021/03/21 09:53:09;;;;;;;31.02;14.98;;;;;;;1.98;73.22;99515.36;1778540;79;21215;-74
2021/03/21 09:55:49;;;;;;;24.25;12.93;;;;;;;1.94;72.99;99513.92;1775812;79;21408;-75
2021/03/21 09:58:43;;;;;;;25.85;13.03;;;;;;;1.93;73.09;99499.27;1783174;79;21241;-76
2021/03/21 10:01:22;;;;;;;27.25;14.23;;;;;;;1.83;73.14;99504.80;1780671;79;21223;-76
2021/03/21 10:03:54;;;;;;;27.62;13.65;;;;;;;1.67;73.83;99504.66;1771756;79;21164;-75
2021/03/21 10:06:23;;;;;;;25.88;13.08;;;;;;;1.63;74.02;99500.62;1778905;79;21226;-77
2021/03/21 10:09:10;;;;;;;22.73;12.37;;;;;;;1.93;73.97;99501.88;1775987;78;21190;-76
2021/03/21 10:11:53;;;;;;;27.40;14.65;;;;;;;1.93;73.97;99501.88;1778466;79;21645;-77
2021/03/21 10:14:30;;;;;;;29.75;15.38;;;;;;;1.89;74.07;99500.44;1777703;79;21205;-78
2021/03/21 10:16:58;;;;;;;27.15;15.25;;;;;;;1.71;75.11;99486.58;1779020;79;21156;-77
2021/03/21 10:19:55;;;;;;;27.17;14.95;;;;;;;1.76;76.18;99509.17;1779610;79;21287;-75
2021/03/21 10:22:34;;;;;;;27.58;14.40;;;;;;;1.73;77.85;99488.58;1776759;79;21219;-78
2021/03/21 10:25:12;;;;;;;26.57;15.00;;;;;;;1.73;77.85;99488.58;1774387;79;21160;-73
2021/03/21 10:27:43;;;;;;;26.48;14.55;;;;;;;1.73;78.34;99489.88;1781379;79;21232;-78
2021/03/21 10:30:29;;;;;;;32.13;15.65;;;;;;;1.97;77.93;99479.84;1776957;78;21116;-79
2021/03/21 10:33:04;;;;;;;28.00;15.40;;;;;;;2.13;77.62;99480.33;1780055;78;21879;-78
2021/03/21 10:35:35;;;;;;;32.70;16.32;;;;;;;1.93;77.35;99475.84;1780356;79;22420;-79
2021/03/21 10:38:14;;;;;;;30.75;15.93;;;;;;;1.67;78.33;99477.33;1777196;79;21204;-77
2021/03/21 10:40:42;;;;;;;30.90;15.83;;;;;;;1.78;78.61;99483.84;1775875;79;21623;-75
2021/03/21 10:43:20;;;;;;;27.77;15.32;;;;;;;1.90;78.32;99469.56;1777559;79;21571;-74
2021/03/21 10:45:48;;;;;;;30.17;15.63;;;;;;;2.00;78.19;99479.61;1782626;79;22417;-75
2021/03/21 10:48:26;;;;;;;31.17;15.58;;;;;;;1.72;77.19;99453.08;1780607;79;21227;-78
2021/03/21 10:50:59;;;;;;;30.25;16.95;;;;;;;1.72;77.19;99453.08;1783304;79;21201;-74
2021/03/21 10:53:40;;;;;;;30.80;16.42;;;;;;;2.06;77.28;99470.02;1781105;79;21237;-76
2021/03/21 10:56:20;;;;;;;28.95;15.20;;;;;;;2.06;77.71;99460.09;1780566;78;21249;-74
2021/03/21 10:58:54;;;;;;;34.67;16.07;;;;;;;2.04;77.45;99448.97;1780388;78;21219;-72
2021/03/21 11:01:26;;;;;;;29.42;16.37;;;;;;;2.07;77.77;99452.16;1775929;79;21224;-75
2021/03/21 11:04:03;;;;;;;29.32;16.12;;;;;;;2.20;77.04;99433.79;1775832;79;21217;-74
2021/03/21 11:06:38;;;;;;;31.30;17.60;;;;;;;2.22;77.05;99444.94;1776559;79;21173;-77
2021/03/21 11:09:14;;;;;;;32.67;18.50;;;;;;;2.26;76.94;99447.64;1774411;79;21224;-74
2021/03/21 11:11:44;;;;;;;35.10;18.70;;;;;;;2.17;76.67;99443.63;1780220;79;21196;-74
2021/03/21 11:14:21;;;;;;;34.65;18.45;;;;;;;2.18;77.20;99455.72;1779347;79;21282;-73
2021/03/21 11:16:59;;;;;;;36.13;19.07;;;;;;;2.12;77.00;99455.22;1777800;79;21265;-73
2021/03/21 11:19:28;;;;;;;34.80;18.85;;;;;;;2.20;76.96;99444.69;1778919;79;21219;-73
2021/03/21 11:21:54;;;;;;;32.93;18.57;;;;;;;1.82;78.19;99444.56;1781712;79;21200;-73
2021/03/21 11:24:34;;;;;;;34.47;19.57;;;;;;;2.04;77.69;99436.77;1769530;79;21942;-75
2021/03/21 11:27:02;;;;;;;32.95;17.95;;;;;;;2.08;77.55;99410.86;1779754;78;21217;-70
2021/03/21 11:29:38;;;;;;;33.23;18.62;;;;;;;2.08;77.55;99410.86;1762688;79;21176;-73
2021/03/21 11:32:23;;;;;;;33.53;18.70;;;;;;;2.17;77.60;99433.21;1780631;79;21196;-74
2021/03/21 11:35:02;;;;;;;39.13;18.57;;;;;;;2.09;77.80;99416.39;1777185;79;21244;-71
2021/03/21 11:37:32;;;;;;;37.53;18.85;;;;;;;2.35;77.21;99413.53;1773316;79;21462;-76
2021/03/21 11:40:34;;;;;;;39.42;20.32;;;;;;;2.37;76.76;99406.41;1778466;79;21229;-77
2021/03/21 11:43:25;;;;;;;30.72;18.50;;;;;;;2.37;76.76;99412.92;1777956;79;21116;-76
2021/03/21 11:45:56;;;;;;;33.23;18.05;;;;;;;2.51;76.40;99416.55;1776297;79;21181;-75
2021/03/21 11:48:35;;;;;;;34.25;18.55;;;;;;;2.51;76.40;99416.55;1773553;79;21649;-75
2021/03/21 11:51:02;;;;;;;30.45;18.65;;;;;;;2.59;75.74;99420.33;1781385;79;21208;-74
2021/03/21 11:53:35;;;;;;;32.13;18.83;;;;;;;2.58;76.23;99401.27;1781470;79;21196;-72
2021/03/21 11:56:19;;;;;;;34.48;20.65;;;;;;;2.48;76.51;99416.80;1774586;79;21196;-73
2021/03/21 11:58:49;;;;;;;31.27;18.15;;;;;;;2.54;76.38;99402.95;1777053;79;21490;-71
2021/03/21 12:01:30;;;;;;;38.02;19.67;;;;;;;2.58;76.23;99404.33;1777492;79;21217;-73
2021/03/21 12:03:59;;;;;;;34.48;18.75;;;;;;;2.40;76.46;99408.77;1781678;79;21563;-72
2021/03/21 12:06:41;;;;;;;33.65;19.35;;;;;;;2.22;76.95;99391.99;1781786;78;21235;-72
2021/03/21 12:09:32;;;;;;;32.98;18.57;;;;;;;2.39;76.47;99395.38;1757023;79;21744;-73
2021/03/21 12:12:01;;;;;;;31.77;18.27;;;;;;;2.54;76.16;99392.52;1784626;79;21215;-71
2021/03/21 12:14:43;;;;;;;35.58;20.05;;;;;;;2.45;76.24;99390.98;1776374;79;21228;-72
2021/03/21 12:17:28;;;;;;;30.90;18.45;;;;;;;2.57;76.30;99382.66;1780058;79;21268;-73
2021/03/21 12:19:56;;;;;;;33.63;19.23;;;;;;;2.61;76.31;99391.05;1780121;78;21215;-72
2021/03/21 12:22:38;;;;;;;33.55;18.85;;;;;;;2.57;77.17;99374.03;1773400;78;21169;-74